createdAt,value
2023-02-19T00:00:09.171Z,98857.91
2023-02-19T00:02:42.981Z,98855.09
2023-02-19T00:05:13.126Z,98853.13
2023-02-19T00:07:43.531Z,98842.66
2023-02-19T00:10:12.326Z,98834.88
2023-02-19T00:12:40.950Z,98835.09
2023-02-19T00:15:09.886Z,98839.97
2023-02-19T00:17:39.623Z,98841.16
2023-02-19T00:20:09.543Z,98839.16
2023-02-19T00:22:39.662Z,98852.28
2023-02-19T00:25:08.663Z,98842.66
2023-02-19T00:27:37.443Z,98836.38
2023-02-19T00:30:06.742Z,98840.09
2023-02-19T00:32:35.489Z,98846.00
2023-02-19T00:35:04.356Z,98836.94
2023-02-19T00:37:33.020Z,98840.91
2023-02-19T00:40:03.075Z,98839.84
2023-02-19T00:42:31.694Z,98835.56
2023-02-19T00:45:00.330Z,98839.03
2023-02-19T00:47:28.980Z,98831.94
2023-02-19T00:50:22.982Z,98829.03
2023-02-19T00:52:51.672Z,98835.66
2023-02-19T00:55:21.804Z,98820.88
2023-02-19T00:57:50.573Z,98826.13
2023-02-19T01:00:19.722Z,98822.19
2023-02-19T01:02:48.529Z,98822.06
2023-02-19T01:05:17.196Z,98809.28
2023-02-19T01:07:45.882Z,98817.78
2023-02-19T01:10:14.585Z,98813.59
2023-02-19T01:12:44.972Z,98807.44
2023-02-19T01:15:13.591Z,98796.63
2023-02-19T01:17:42.250Z,98794.53
2023-02-19T01:20:11.691Z,98790.47
2023-02-19T01:22:40.375Z,98780.25
2023-02-19T01:25:09.878Z,98777.22
2023-02-19T01:27:38.905Z,98772.66
2023-02-19T01:30:11.025Z,98761.75
2023-02-19T01:32:39.867Z,98769.78
2023-02-19T01:35:09.086Z,98753.63
2023-02-19T01:37:37.689Z,98757.56
2023-02-19T01:40:07.249Z,98752.56
2023-02-19T01:42:35.912Z,98747.69
2023-02-19T01:45:26.833Z,98743.50
2023-02-19T01:48:06.267Z,98750.47
2023-02-19T01:50:42.804Z,98747.22
2023-02-19T01:53:18.526Z,98743.16
2023-02-19T01:55:51.391Z,98748.16
2023-02-19T01:58:20.323Z,98750.25
2023-02-19T02:00:51.861Z,98744.31
2023-02-19T02:03:22.240Z,98743.88
2023-02-19T02:06:01.683Z,98745.13
2023-02-19T02:08:50.043Z,98737.09
2023-02-19T02:11:23.106Z,98730.03
2023-02-19T02:13:52.897Z,98730.38
2023-02-19T02:16:32.468Z,98719.31
2023-02-19T02:19:13.633Z,98724.66
2023-02-19T02:22:02.891Z,98707.94
2023-02-19T02:25:11.292Z,98715.25
2023-02-19T02:28:03.242Z,98706.31
2023-02-19T02:30:55.289Z,98706.16
2023-02-19T02:33:37.630Z,98697.94
2023-02-19T02:36:13.713Z,98690.28
2023-02-19T02:38:46.128Z,98683.66
2023-02-19T02:41:16.882Z,98685.53
2023-02-19T02:43:46.051Z,98682.00
2023-02-19T02:46:26.361Z,98686.78
2023-02-19T02:48:59.000Z,98664.72
2023-02-19T02:51:32.107Z,98674.00
2023-02-19T02:54:30.012Z,98664.25
2023-02-19T02:57:02.197Z,98659.22
2023-02-19T02:59:40.258Z,98659.72
2023-02-19T03:02:18.959Z,98653.09
2023-02-19T03:05:12.609Z,98649.97
2023-02-19T03:07:49.179Z,98641.84
2023-02-19T03:10:27.234Z,98649.38
2023-02-19T03:13:17.236Z,98645.56
2023-02-19T03:16:09.449Z,98643.72
2023-02-19T03:19:02.856Z,98645.34
2023-02-19T03:21:36.177Z,98641.84
2023-02-19T03:24:30.772Z,98625.34
2023-02-19T03:27:05.610Z,98624.28
2023-02-19T03:29:44.390Z,98626.41
2023-02-19T03:32:20.131Z,98623.59
2023-02-19T03:34:56.822Z,98624.06
2023-02-19T03:37:33.930Z,98622.91
2023-02-19T03:40:03.103Z,98623.94
2023-02-19T03:43:00.554Z,98620.78
2023-02-19T03:45:45.834Z,98617.81
2023-02-19T03:48:30.181Z,98613.28
2023-02-19T03:51:19.241Z,98606.09
2023-02-19T03:54:02.129Z,98592.84
2023-02-19T03:56:40.411Z,98590.50
2023-02-19T03:59:17.868Z,98582.50
2023-02-19T04:01:52.098Z,98584.50
2023-02-19T04:04:29.386Z,98581.13
2023-02-19T04:07:00.502Z,98581.13
2023-02-19T04:09:41.470Z,98580.66
2023-02-19T04:12:16.906Z,98576.97
2023-02-19T04:14:54.754Z,98577.97
2023-02-19T04:17:30.801Z,98567.09
2023-02-19T04:20:02.271Z,98567.91
2023-02-19T04:22:33.260Z,98573.00
2023-02-19T04:25:03.207Z,98576.97
2023-02-19T04:27:32.876Z,98568.72
2023-02-19T04:30:01.607Z,98567.91
2023-02-19T04:32:30.337Z,98566.28
2023-02-19T04:34:58.969Z,98561.75
2023-02-19T04:37:27.755Z,98555.13
2023-02-19T04:39:57.872Z,98553.97
2023-02-19T04:42:26.511Z,98552.34
2023-02-19T04:44:55.147Z,98547.13
2023-02-19T04:47:23.805Z,98547.69
2023-02-19T04:49:52.608Z,98540.16
2023-02-19T04:52:21.299Z,98546.88
2023-02-19T04:54:50.643Z,98530.41
2023-02-19T04:57:20.707Z,98533.09
2023-02-19T04:59:49.480Z,98529.03
2023-02-19T05:02:18.181Z,98535.31
2023-02-19T05:04:46.819Z,98534.59
2023-02-19T05:07:15.548Z,98532.50
2023-02-19T05:09:44.171Z,98528.56
2023-02-19T05:12:12.829Z,98522.88
2023-02-19T05:14:42.866Z,98509.31
2023-02-19T05:17:11.557Z,98514.28
2023-02-19T05:19:40.188Z,98533.88
2023-02-19T05:22:09.004Z,98538.88
2023-02-19T05:24:37.659Z,98535.75
2023-02-19T05:27:06.341Z,98546.19
2023-02-19T05:29:35.048Z,98554.44
2023-02-19T05:32:05.294Z,98553.88
2023-02-19T05:34:34.182Z,98554.44
2023-02-19T05:37:02.832Z,98569.97
2023-02-19T05:39:31.520Z,98580.66
2023-02-19T05:42:00.220Z,98571.38
2023-02-19T05:44:29.061Z,98575.78
2023-02-19T05:46:57.723Z,98582.31
2023-02-19T05:49:27.944Z,98585.88
2023-02-19T05:51:56.718Z,98591.69
2023-02-19T05:54:25.447Z,98593.16
2023-02-19T05:56:54.033Z,98596.84
2023-02-19T05:59:25.703Z,98607.97
2023-02-19T06:01:56.194Z,98609.03
2023-02-19T06:04:26.295Z,98613.66
2023-02-19T06:06:54.965Z,98609.16
2023-02-19T06:09:24.766Z,98617.38
2023-02-19T06:11:53.522Z,98613.31
2023-02-19T06:14:23.295Z,98613.88
2023-02-19T06:16:52.038Z,98615.84
2023-02-19T06:19:21.020Z,98630.47
2023-02-19T06:21:53.308Z,98625.72
2023-02-19T06:24:22.031Z,98633.47
2023-02-19T06:26:50.675Z,98628.63
2023-02-19T06:29:19.831Z,98633.47
2023-02-19T06:31:48.617Z,98630.56
2023-02-19T06:34:23.229Z,98637.09
2023-02-19T06:36:54.317Z,98630.50
2023-02-19T06:39:23.074Z,98626.78
2023-02-19T06:41:56.165Z,98642.34
2023-02-19T06:44:25.657Z,98635.06
2023-02-19T06:46:57.124Z,98643.44
2023-02-19T06:49:25.884Z,98635.66
2023-02-19T06:51:56.146Z,98640.91
2023-02-19T06:54:25.879Z,98649.94
2023-02-19T06:56:54.657Z,98649.13
2023-02-19T06:59:23.402Z,98660.63
2023-02-19T07:01:52.133Z,98638.91
2023-02-19T07:04:21.878Z,98647.97
2023-02-19T07:06:51.024Z,98643.44
2023-02-19T07:09:23.423Z,98652.38
2023-02-19T07:11:52.437Z,98647.50
2023-02-19T07:14:25.092Z,98653.31
2023-02-19T07:16:53.979Z,98660.03
2023-02-19T07:19:24.811Z,98665.59
2023-02-19T07:21:54.587Z,98669.75
2023-02-19T07:24:24.743Z,98671.97
2023-02-19T07:26:53.529Z,98676.97
2023-02-19T07:32:15.116Z,98686.44
2023-02-19T07:34:42.635Z,98689.09
2023-02-19T07:37:10.170Z,98703.47
2023-02-19T07:39:37.748Z,98698.59
2023-02-19T07:42:05.527Z,98707.06
2023-02-19T07:44:33.291Z,98731.06
2023-02-19T07:47:01.235Z,98741.50
2023-02-19T07:52:29.626Z,98767.34
2023-02-19T07:55:12.450Z,98773.94
2023-02-19T07:57:41.750Z,98772.31
2023-02-19T08:00:12.206Z,98781.28
2023-02-19T08:03:01.749Z,98791.56
2023-02-19T08:05:35.269Z,98794.78
2023-02-19T08:08:06.576Z,98800.75
2023-02-19T08:10:52.591Z,98814.22
2023-02-19T08:13:23.708Z,98808.16
2023-02-19T08:16:01.718Z,98809.09
2023-02-19T08:18:37.372Z,98823.88
2023-02-19T08:21:08.069Z,98827.59
2023-02-19T08:23:37.146Z,98842.00
2023-02-19T08:26:07.380Z,98851.81
2023-02-19T08:28:36.392Z,98851.94
2023-02-19T08:31:08.541Z,98862.22
2023-02-19T08:33:41.218Z,98893.59
2023-02-19T08:36:13.970Z,98898.75
2023-02-19T08:38:42.880Z,98897.22
2023-02-19T08:41:14.942Z,98897.25
2023-02-19T08:43:45.793Z,98902.59
2023-02-19T08:46:16.878Z,98908.97
2023-02-19T08:48:48.231Z,98921.66
2023-02-19T08:54:11.013Z,98949.31
2023-02-19T08:56:41.793Z,98952.59
2023-02-19T08:59:11.741Z,98967.91
2023-02-19T09:01:42.049Z,98980.44
2023-02-19T09:04:13.394Z,98983.72
2023-02-19T09:06:42.336Z,98987.41
2023-02-19T09:09:12.617Z,98989.69
2023-02-19T09:11:41.516Z,98991.94
2023-02-19T09:14:10.502Z,98995.88
2023-02-19T09:16:39.321Z,99011.19
2023-02-19T09:19:08.420Z,99025.53
2023-02-19T09:21:37.144Z,99023.09
2023-02-19T09:24:06.699Z,99032.50
2023-02-19T09:26:46.251Z,99039.69
2023-02-19T09:29:15.485Z,99044.78
2023-02-19T09:31:45.367Z,99054.00
2023-02-19T09:34:14.945Z,99065.66
2023-02-19T09:36:44.168Z,99074.25
2023-02-19T09:39:12.925Z,99084.91
2023-02-19T09:41:49.405Z,99102.88
2023-02-19T09:44:28.980Z,99104.13
2023-02-19T09:47:01.346Z,99104.09
2023-02-19T09:49:36.751Z,99114.25
2023-02-19T09:52:19.576Z,99125.09
2023-02-19T09:54:49.165Z,99143.63
2023-02-19T09:57:24.354Z,99141.59
2023-02-19T10:00:00.454Z,99145.28
2023-02-19T10:02:30.904Z,99143.63
2023-02-19T10:05:00.207Z,99158.31
2023-02-19T10:07:39.693Z,99156.66
2023-02-19T10:10:30.382Z,99162.03
2023-02-19T10:13:21.121Z,99163.47
2023-02-19T10:15:54.425Z,99168.84
2023-02-19T10:18:28.397Z,99169.94
2023-02-19T10:20:59.478Z,99175.69
2023-02-19T10:23:28.490Z,99171.22
2023-02-19T10:26:01.450Z,99177.59
2023-02-19T10:28:35.555Z,99173.94
2023-02-19T10:31:08.591Z,99177.63
2023-02-19T10:33:52.335Z,99188.88
2023-02-19T10:36:32.442Z,99190.50
2023-02-19T10:39:23.948Z,99183.16
2023-02-19T10:41:55.224Z,99195.44
2023-02-19T10:44:31.018Z,99204.03
2023-02-19T10:47:02.370Z,99211.41
2023-02-19T10:49:36.466Z,99219.41
2023-02-19T10:52:18.736Z,99216.53
2023-02-19T10:54:52.312Z,99215.06
2023-02-19T10:57:33.415Z,99218.97
2023-02-19T11:00:22.786Z,99222.06
2023-02-19T11:03:19.674Z,99222.88
2023-02-19T11:06:09.774Z,99230.44
2023-02-19T11:08:57.178Z,99228.59
2023-02-19T11:11:42.358Z,99242.53
2023-02-19T11:14:21.587Z,99237.59
2023-02-19T11:16:57.314Z,99238.03
2023-02-19T11:19:33.044Z,99240.91
2023-02-19T11:22:29.692Z,99253.19
2023-02-19T11:25:04.333Z,99259.97
2023-02-19T11:27:34.102Z,99273.06
2023-02-19T11:30:44.774Z,99260.97
2023-02-19T11:33:28.470Z,99263.44
2023-02-19T11:36:26.276Z,99266.13
2023-02-19T11:38:57.589Z,99273.69
2023-02-19T11:41:53.650Z,99286.78
2023-02-19T11:44:43.752Z,99280.66
2023-02-19T11:47:51.408Z,99281.88
2023-02-19T11:50:36.615Z,99280.25
2023-02-19T11:53:23.094Z,99277.16
2023-02-19T11:56:17.384Z,99276.75
2023-02-19T11:59:15.277Z,99279.41
2023-02-19T12:02:20.968Z,99288.41
2023-02-19T12:05:23.007Z,99298.25
2023-02-19T12:08:53.567Z,99296.00
2023-02-19T12:11:53.645Z,99304.59
2023-02-19T12:15:22.229Z,99311.56
2023-02-19T12:18:39.740Z,99318.34
2023-02-19T12:21:30.116Z,99322.66
2023-02-19T12:24:33.820Z,99326.13
2023-02-19T12:27:27.525Z,99311.78
2023-02-19T12:30:42.017Z,99322.88
2023-02-19T12:33:48.914Z,99313.22
2023-02-19T12:36:31.983Z,99313.81
2023-02-19T12:39:19.455Z,99308.50
2023-02-19T12:42:02.494Z,99311.38
2023-02-19T12:44:43.656Z,99317.72
2023-02-19T12:47:23.183Z,99317.69
2023-02-19T12:50:03.916Z,99315.66
2023-02-19T12:52:40.459Z,99312.59
2023-02-19T12:55:23.945Z,99325.31
2023-02-19T12:57:55.394Z,99322.25
2023-02-19T13:00:36.886Z,99318.78
2023-02-19T13:03:21.002Z,99328.41
2023-02-19T13:05:58.749Z,99334.75
2023-02-19T13:08:35.621Z,99335.38
2023-02-19T13:11:15.706Z,99331.88
2023-02-19T13:13:52.884Z,99342.53
2023-02-19T13:16:25.222Z,99337.81
2023-02-19T13:19:01.587Z,99348.69
2023-02-19T13:22:22.023Z,99346.44
2023-02-19T13:24:57.057Z,99343.78
2023-02-19T13:28:06.056Z,99338.47
2023-02-19T13:31:25.227Z,99333.13
2023-02-19T13:34:13.115Z,99348.91
2023-02-19T13:36:44.110Z,99349.72
2023-02-19T13:39:36.975Z,99360.75
2023-02-19T13:43:00.409Z,99365.63
2023-02-19T13:45:46.421Z,99373.03
2023-02-19T13:48:28.422Z,99369.94
2023-02-19T13:51:51.550Z,99371.19
2023-02-19T13:54:29.638Z,99362.41
2023-02-19T13:57:30.415Z,99370.38
2023-02-19T14:00:01.969Z,99374.28
2023-02-19T14:02:37.487Z,99368.75
2023-02-19T14:05:11.987Z,99364.63
2023-02-19T14:08:06.223Z,99363.78
2023-02-19T14:11:05.055Z,99367.22
2023-02-19T14:14:06.878Z,99391.59
2023-02-19T14:17:08.786Z,99392.84
2023-02-19T14:20:02.388Z,99397.13
2023-02-19T14:23:17.149Z,99403.47
2023-02-19T14:25:52.943Z,99399.84
2023-02-19T14:28:46.054Z,99397.78
2023-02-19T14:31:42.224Z,99407.13
2023-02-19T14:35:05.973Z,99402.84
2023-02-19T14:37:36.539Z,99402.16
2023-02-19T14:40:06.927Z,99403.19
2023-02-19T14:43:01.037Z,99413.19
2023-02-19T14:46:07.899Z,99420.94
2023-02-19T14:48:44.346Z,99418.47
2023-02-19T14:51:27.563Z,99421.41
2023-02-19T14:54:02.471Z,99422.63
2023-02-19T14:56:37.780Z,99433.69
2023-02-19T14:59:23.363Z,99438.53
2023-02-19T15:02:03.194Z,99451.59
2023-02-19T15:04:38.167Z,99450.41
2023-02-19T15:07:18.457Z,99443.88
2023-02-19T15:09:58.274Z,99450.41
2023-02-19T15:12:37.200Z,99457.94
2023-02-19T15:15:17.760Z,99447.56
2023-02-19T15:17:48.300Z,99456.13
2023-02-19T15:20:24.072Z,99451.44
2023-02-19T15:22:59.819Z,99450.81
2023-02-19T15:25:36.167Z,99448.56
2023-02-19T15:28:38.987Z,99448.41
2023-02-19T15:31:15.860Z,99463.28
2023-02-19T15:33:52.627Z,99469.81
2023-02-19T15:36:31.066Z,99460.53
2023-02-19T15:39:04.265Z,99463.03
2023-02-19T15:41:36.269Z,99463.47
2023-02-19T15:44:30.859Z,99473.28
2023-02-19T15:47:08.050Z,99476.56
2023-02-19T15:49:47.904Z,99480.25
2023-02-19T15:52:31.738Z,99475.72
2023-02-19T15:55:14.804Z,99477.78
2023-02-19T15:57:53.654Z,99484.31
2023-02-19T16:00:34.181Z,99479.59
2023-02-19T16:03:05.578Z,99477.31
2023-02-19T16:05:39.950Z,99480.38
2023-02-19T16:08:21.098Z,99486.16
2023-02-19T16:11:03.839Z,99490.44
2023-02-19T16:13:35.067Z,99487.31
2023-02-19T16:16:17.093Z,99493.56
2023-02-19T16:18:47.990Z,99489.13
2023-02-19T16:21:22.880Z,99478.72
2023-02-19T16:24:01.670Z,99480.53
2023-02-19T16:26:41.367Z,99488.78
2023-02-19T16:29:22.230Z,99496.22
2023-02-19T16:32:00.860Z,99490.38
2023-02-19T16:34:40.607Z,99489.50
2023-02-19T16:37:34.371Z,99499.13
2023-02-19T16:41:05.825Z,99513.66
2023-02-19T16:43:44.728Z,99519.50
2023-02-19T16:46:14.843Z,99533.50
2023-02-19T16:48:45.060Z,99534.31
2023-02-19T16:51:25.044Z,99534.31
2023-02-19T16:53:53.986Z,99536.69
2023-02-19T16:56:26.596Z,99547.06
2023-02-19T16:58:56.781Z,99552.72
2023-02-19T17:01:27.650Z,99552.78
2023-02-19T17:04:04.108Z,99562.47
2023-02-19T17:06:34.844Z,99564.94
2023-02-19T17:09:03.504Z,99572.59
2023-02-19T17:11:33.387Z,99582.69
2023-02-19T17:14:05.585Z,99592.09
2023-02-19T17:16:39.841Z,99592.63
2023-02-19T17:19:14.494Z,99597.28
2023-02-19T17:21:45.218Z,99595.00
2023-02-19T17:24:18.970Z,99596.88
2023-02-19T17:26:49.195Z,99602.81
2023-02-19T17:29:20.364Z,99594.75
2023-02-19T17:31:56.326Z,99604.44
2023-02-19T17:34:27.082Z,99607.38
2023-02-19T17:36:56.015Z,99615.97
2023-02-19T17:39:25.535Z,99615.63
2023-02-19T17:41:54.277Z,99627.66
2023-02-19T17:44:25.654Z,99621.97
2023-02-19T17:46:56.490Z,99626.34
2023-02-19T17:49:25.730Z,99627.97
2023-02-19T17:51:54.412Z,99628.34
2023-02-19T17:54:23.243Z,99629.28
2023-02-19T17:56:52.011Z,99629.19
2023-02-19T17:59:20.854Z,99634.91
2023-02-19T18:01:51.153Z,99641.94
2023-02-19T18:04:20.118Z,99643.25
2023-02-19T18:06:49.006Z,99638.94
2023-02-19T18:09:19.457Z,99644.22
2023-02-19T18:11:49.462Z,99647.53
2023-02-19T18:14:18.423Z,99644.22
2023-02-19T18:16:49.989Z,99648.72
2023-02-19T18:19:25.166Z,99661.84
2023-02-19T18:21:54.145Z,99666.16
2023-02-19T18:24:23.365Z,99673.13
2023-02-19T18:26:52.116Z,99671.94
2023-02-19T18:29:22.038Z,99665.81
2023-02-19T18:31:53.056Z,99669.47
2023-02-19T18:34:24.689Z,99678.06
2023-02-19T18:36:53.645Z,99673.94
2023-02-19T18:39:22.480Z,99674.41
2023-02-19T18:41:52.815Z,99686.31
2023-02-19T18:45:10.275Z,99682.94
2023-02-19T18:47:41.030Z,99683.44
2023-02-19T18:50:13.027Z,99688.69
2023-02-19T18:52:41.897Z,99695.69
2023-02-19T18:55:12.687Z,99679.91
2023-02-19T18:57:41.570Z,99679.41
2023-02-19T19:00:13.414Z,99678.41
2023-02-19T19:02:49.149Z,99683.63
2023-02-19T19:05:23.299Z,99676.25
2023-02-19T19:07:54.333Z,99676.75
2023-02-19T19:10:24.337Z,99685.34
2023-02-19T19:12:54.328Z,99675.22
2023-02-19T19:15:28.107Z,99674.41
2023-02-19T19:17:57.463Z,99679.69
2023-02-19T19:20:28.197Z,99686.97
2023-02-19T19:22:58.711Z,99696.94
2023-02-19T19:25:28.679Z,99695.81
2023-02-19T19:27:59.731Z,99698.81
2023-02-19T19:30:28.836Z,99700.28
2023-02-19T19:32:58.025Z,99703.56
2023-02-19T19:35:31.749Z,99696.63
2023-02-19T19:38:02.626Z,99693.34
2023-02-19T19:40:31.382Z,99682.81
2023-02-19T19:43:00.286Z,99685.78
2023-02-19T19:45:29.017Z,99689.06
2023-02-19T19:47:57.822Z,99705.63
2023-02-19T19:50:26.701Z,99707.47
2023-02-19T19:52:56.883Z,99717.00
2023-02-19T19:55:25.833Z,99700.56
2023-02-19T19:58:01.068Z,99703.72
2023-02-19T20:00:29.892Z,99695.34
2023-02-19T20:02:58.820Z,99692.50
2023-02-19T20:05:27.709Z,99701.72
2023-02-19T20:08:01.265Z,99704.81
2023-02-19T20:10:31.289Z,99701.47
2023-02-19T20:13:05.513Z,99698.84
2023-02-19T20:15:35.280Z,99693.88
2023-02-19T20:18:08.346Z,99688.59
2023-02-19T20:20:37.389Z,99701.19
2023-02-19T20:23:07.799Z,99695.59
2023-02-19T20:25:37.656Z,99694.59
2023-02-19T20:28:06.888Z,99690.59
2023-02-19T20:30:37.268Z,99696.25
2023-02-19T20:33:06.293Z,99698.94
2023-02-19T20:35:34.973Z,99688.84
2023-02-19T20:38:03.763Z,99691.00
2023-02-19T20:40:34.038Z,99692.66
2023-02-19T20:43:03.144Z,99691.00
2023-02-19T20:45:32.093Z,99697.94
2023-02-19T20:48:00.856Z,99704.06
2023-02-19T20:50:29.515Z,99707.19
2023-02-19T20:52:58.328Z,99709.88
2023-02-19T20:55:27.020Z,99704.91
2023-02-19T20:57:57.156Z,99708.22
2023-02-19T21:00:26.033Z,99708.34
2023-02-19T21:02:54.794Z,99713.50
2023-02-19T21:05:23.919Z,99714.13
2023-02-19T21:07:52.685Z,99722.91
2023-02-19T21:10:22.574Z,99729.19
2023-02-19T21:12:52.410Z,99734.97
2023-02-19T21:15:22.589Z,99736.44
2023-02-19T21:17:51.820Z,99734.44
2023-02-19T21:20:20.949Z,99737.59
2023-02-19T21:22:49.594Z,99747.84
2023-02-19T21:25:18.507Z,99743.22
2023-02-19T21:27:47.223Z,99740.22
2023-02-19T21:30:24.143Z,99737.25
2023-02-19T21:32:57.357Z,99738.59
2023-02-19T21:35:35.451Z,99745.88
2023-02-19T21:38:04.124Z,99746.53
2023-02-19T21:40:34.128Z,99747.88
2023-02-19T21:43:03.042Z,99758.59
2023-02-19T21:45:35.686Z,99765.06
2023-02-19T21:48:04.441Z,99759.28
2023-02-19T21:50:33.141Z,99761.09
2023-02-19T21:53:02.003Z,99766.38
2023-02-19T21:55:31.286Z,99765.56
2023-02-19T21:58:00.086Z,99763.25
2023-02-19T22:00:28.808Z,99756.13
2023-02-19T22:02:59.104Z,99760.75
2023-02-19T22:05:27.917Z,99753.31
2023-02-19T22:07:58.330Z,99749.50
2023-02-19T22:10:27.161Z,99741.38
2023-02-19T22:12:55.912Z,99737.28
2023-02-19T22:15:24.613Z,99729.03
2023-02-19T22:17:53.469Z,99732.34
2023-02-19T22:20:23.694Z,99727.50
2023-02-19T22:22:53.731Z,99718.09
2023-02-19T22:25:22.811Z,99708.00
2023-02-19T22:27:51.481Z,99716.63
2023-02-19T22:30:20.656Z,99714.31
2023-02-19T22:32:49.361Z,99724.06
2023-02-19T22:35:18.289Z,99707.69
2023-02-19T22:37:48.455Z,99714.81
2023-02-19T22:40:17.270Z,99717.28
2023-02-19T22:42:46.040Z,99719.44
2023-02-19T22:45:15.692Z,99721.06
2023-02-19T22:47:46.992Z,99724.06
2023-02-19T22:50:19.626Z,99723.56
2023-02-19T22:52:50.297Z,99730.34
2023-02-19T22:55:19.396Z,99731.97
2023-02-19T22:57:48.162Z,99719.91
2023-02-19T23:00:21.715Z,99718.03
2023-02-19T23:02:50.785Z,99713.06
2023-02-19T23:05:19.587Z,99703.16
2023-02-19T23:07:49.719Z,99706.78
2023-02-19T23:10:18.863Z,99691.41
2023-02-19T23:12:47.606Z,99687.88
2023-02-19T23:15:16.408Z,99694.50
2023-02-19T23:17:45.225Z,99677.63
2023-02-19T23:20:14.839Z,99676.28
2023-02-19T23:22:43.741Z,99668.16
2023-02-19T23:25:13.872Z,99665.00
2023-02-19T23:27:42.612Z,99655.25
2023-02-19T23:30:12.400Z,99649.13
2023-02-19T23:32:41.205Z,99645.03
2023-02-19T23:35:10.153Z,99644.84
2023-02-19T23:37:38.927Z,99653.69
2023-02-19T23:40:09.285Z,99658.97
2023-02-19T23:42:39.372Z,99648.66
2023-02-19T23:45:08.822Z,99651.47
2023-02-19T23:47:37.601Z,99655.41
2023-02-19T23:50:12.550Z,99645.47
2023-02-19T23:52:41.594Z,99639.16
2023-02-19T23:55:10.381Z,99629.56
2023-02-19T23:57:40.677Z,99633.53
